createdAt,value
2023-03-10T00:00:22.042Z,33.67
2023-03-10T00:02:50.353Z,31.48
2023-03-10T00:05:21.981Z,31.83
2023-03-10T00:07:50.440Z,29.37
2023-03-10T00:10:17.815Z,34.25
2023-03-10T00:12:44.986Z,29.08
2023-03-10T00:15:12.906Z,30.13
2023-03-10T00:17:40.026Z,30.88
2023-03-10T00:20:08.182Z,31.40
2023-03-10T00:22:39.398Z,30.80
2023-03-10T00:25:07.603Z,26.83
2023-03-10T00:27:34.771Z,27.23
2023-03-10T00:30:02.539Z,25.30
2023-03-10T00:32:29.806Z,25.95
2023-03-10T00:34:57.827Z,25.73
2023-03-10T00:37:25.062Z,25.85
2023-03-10T00:39:52.894Z,27.15
2023-03-10T00:42:20.232Z,25.05
2023-03-10T00:44:48.090Z,20.38
2023-03-10T00:47:15.802Z,26.35
2023-03-10T00:49:42.880Z,22.70
2023-03-10T00:52:10.031Z,23.85
2023-03-10T00:54:39.903Z,20.15
2023-03-10T00:57:07.215Z,23.65
2023-03-10T00:59:47.782Z,21.08
2023-03-10T01:02:17.017Z,19.52
2023-03-10T01:04:44.222Z,18.30
2023-03-10T01:07:11.548Z,20.20
2023-03-10T01:09:38.670Z,18.45
2023-03-10T01:12:05.946Z,20.65
2023-03-10T01:14:33.072Z,19.50
2023-03-10T01:17:00.500Z,19.77
2023-03-10T01:19:27.670Z,18.60
2023-03-10T01:21:54.785Z,20.13
2023-03-10T01:24:22.156Z,17.48
2023-03-10T01:26:49.221Z,19.35
2023-03-10T01:29:16.573Z,16.95
2023-03-10T01:31:43.730Z,19.20
2023-03-10T01:34:11.213Z,17.63
2023-03-10T01:36:38.320Z,17.63
2023-03-10T01:39:06.434Z,21.25
2023-03-10T01:41:38.049Z,17.65
2023-03-10T01:44:05.492Z,18.52
2023-03-10T01:46:32.728Z,16.98
2023-03-10T01:49:06.642Z,15.90
2023-03-10T01:51:35.201Z,14.95
2023-03-10T01:54:04.066Z,17.83
2023-03-10T01:56:31.384Z,14.88
2023-03-10T01:58:58.630Z,15.52
2023-03-10T02:01:26.304Z,15.65
2023-03-10T02:04:05.924Z,19.38
2023-03-10T02:06:34.377Z,17.05
2023-03-10T02:09:02.699Z,15.48
2023-03-10T02:11:30.280Z,14.60
2023-03-10T02:13:57.469Z,13.75
2023-03-10T02:16:24.636Z,14.35
2023-03-10T02:18:51.809Z,15.23
2023-03-10T02:21:18.994Z,15.77
2023-03-10T02:24:01.743Z,14.88
2023-03-10T02:26:44.575Z,14.65
2023-03-10T02:29:18.347Z,15.02
2023-03-10T02:31:46.383Z,14.93
2023-03-10T02:34:13.668Z,14.48
2023-03-10T02:36:41.670Z,14.25
2023-03-10T02:39:11.010Z,14.57
2023-03-10T02:41:39.284Z,14.68
2023-03-10T02:44:10.238Z,13.85
2023-03-10T02:46:37.547Z,15.48
2023-03-10T02:49:07.686Z,13.45
2023-03-10T02:51:40.541Z,12.60
2023-03-10T02:54:13.936Z,14.00
2023-03-10T02:56:42.812Z,13.40
2023-03-10T02:59:11.482Z,14.07
2023-03-10T03:01:43.376Z,15.27
2023-03-10T03:04:10.642Z,9.82
2023-03-10T03:06:39.672Z,14.48
2023-03-10T03:09:06.890Z,11.90
2023-03-10T03:11:34.101Z,12.40
2023-03-10T03:14:01.758Z,11.35
2023-03-10T03:16:30.563Z,11.05
2023-03-10T03:19:01.465Z,11.98
2023-03-10T03:21:29.908Z,10.60
2023-03-10T03:23:57.056Z,12.48
2023-03-10T03:26:25.488Z,10.65
2023-03-10T03:28:57.394Z,10.68
2023-03-10T03:31:28.955Z,10.75
2023-03-10T03:34:08.526Z,11.90
2023-03-10T03:36:35.983Z,11.93
2023-03-10T03:39:06.204Z,10.75
2023-03-10T03:41:34.708Z,9.48
2023-03-10T03:44:02.469Z,10.93
2023-03-10T03:46:31.255Z,10.77
2023-03-10T03:48:59.604Z,12.48
2023-03-10T03:51:26.771Z,9.27
2023-03-10T03:53:54.439Z,9.85
2023-03-10T03:56:22.055Z,12.13
2023-03-10T03:58:49.256Z,11.80
2023-03-10T04:01:16.528Z,12.38
2023-03-10T04:03:48.531Z,13.30
2023-03-10T04:06:17.594Z,14.23
2023-03-10T04:08:45.581Z,13.68
2023-03-10T04:11:13.394Z,14.25
2023-03-10T04:13:46.278Z,12.38
2023-03-10T04:16:14.225Z,11.52
2023-03-10T04:18:43.183Z,13.63
2023-03-10T04:21:12.401Z,11.40
2023-03-10T04:23:42.142Z,13.38
2023-03-10T04:26:11.000Z,12.27
2023-03-10T04:28:39.681Z,10.38
2023-03-10T04:31:13.645Z,16.38
2023-03-10T04:33:42.306Z,14.35
2023-03-10T04:36:09.737Z,10.98
2023-03-10T04:38:37.696Z,13.02
2023-03-10T04:41:05.808Z,12.23
2023-03-10T04:43:39.594Z,11.40
2023-03-10T04:46:08.733Z,11.52
2023-03-10T04:48:36.083Z,10.70
2023-03-10T04:51:05.273Z,12.80
2023-03-10T04:53:36.746Z,12.68
2023-03-10T04:56:05.125Z,11.63
2023-03-10T04:58:34.325Z,11.82
2023-03-10T05:01:03.621Z,11.98
2023-03-10T05:03:35.141Z,13.38
2023-03-10T05:06:02.312Z,11.77
2023-03-10T05:08:30.179Z,12.00
2023-03-10T05:10:57.369Z,10.70
2023-03-10T05:13:24.680Z,12.55
2023-03-10T05:15:52.248Z,13.48
2023-03-10T05:18:19.510Z,11.95
2023-03-10T05:20:46.669Z,11.75
2023-03-10T05:23:13.905Z,12.38
2023-03-10T05:25:41.077Z,11.90
2023-03-10T05:28:08.390Z,13.18
2023-03-10T05:30:35.598Z,13.70
2023-03-10T05:33:03.083Z,11.68
2023-03-10T05:35:30.369Z,15.23
2023-03-10T05:37:58.936Z,16.73
2023-03-10T05:40:26.104Z,14.00
2023-03-10T05:42:53.296Z,16.17
2023-03-10T05:45:22.237Z,16.25
2023-03-10T05:47:50.943Z,15.18
2023-03-10T05:50:19.313Z,16.88
2023-03-10T05:52:46.881Z,15.85
2023-03-10T05:55:17.171Z,17.38
2023-03-10T05:57:44.913Z,16.52
2023-03-10T06:00:13.133Z,17.75
2023-03-10T06:02:48.518Z,17.02
2023-03-10T06:05:15.737Z,18.70
2023-03-10T06:07:42.999Z,17.48
2023-03-10T06:10:10.493Z,17.45
2023-03-10T06:12:37.684Z,15.35
2023-03-10T06:15:05.083Z,14.88
2023-03-10T06:17:32.277Z,16.83
2023-03-10T06:19:59.781Z,17.42
2023-03-10T06:22:28.542Z,17.08
2023-03-10T06:24:57.562Z,17.08
2023-03-10T06:27:24.749Z,17.50
2023-03-10T06:29:51.834Z,15.57
2023-03-10T06:32:19.146Z,17.60
2023-03-10T06:34:46.299Z,13.10
2023-03-10T06:37:13.385Z,14.98
2023-03-10T06:39:41.014Z,15.35
2023-03-10T06:42:09.150Z,13.43
2023-03-10T06:44:36.784Z,15.50
2023-03-10T06:47:07.200Z,14.63
2023-03-10T06:49:34.432Z,15.40
2023-03-10T06:52:01.804Z,15.73
2023-03-10T06:54:29.027Z,15.68
2023-03-10T06:56:56.162Z,14.20
2023-03-10T06:59:23.386Z,16.17
2023-03-10T07:01:50.536Z,13.68
2023-03-10T07:04:17.716Z,18.83
2023-03-10T07:06:44.936Z,15.57
2023-03-10T07:09:12.078Z,16.80
2023-03-10T07:11:39.244Z,17.10
2023-03-10T07:14:06.502Z,20.98
2023-03-10T07:16:33.597Z,16.10
2023-03-10T07:19:00.748Z,18.95
2023-03-10T07:21:27.967Z,16.35
2023-03-10T07:23:55.095Z,16.92
2023-03-10T07:26:22.501Z,17.27
2023-03-10T07:28:49.613Z,18.40
2023-03-10T07:31:17.213Z,18.05
2023-03-10T07:33:47.511Z,18.58
2023-03-10T07:36:16.302Z,15.90
2023-03-10T07:38:43.765Z,18.30
2023-03-10T07:41:12.385Z,19.75
2023-03-10T07:43:39.933Z,22.25
2023-03-10T07:46:08.732Z,18.98
2023-03-10T07:48:36.190Z,20.23
2023-03-10T07:51:03.489Z,18.45
2023-03-10T07:53:30.865Z,19.08
2023-03-10T07:55:58.046Z,20.25
2023-03-10T07:58:25.240Z,17.15
2023-03-10T08:00:56.651Z,19.83
2023-03-10T08:03:24.209Z,20.83
2023-03-10T08:05:51.669Z,18.35
2023-03-10T08:08:19.154Z,18.48
2023-03-10T08:10:46.273Z,20.67
2023-03-10T08:13:13.782Z,21.35
2023-03-10T08:15:41.387Z,22.65
2023-03-10T08:18:08.644Z,20.30
2023-03-10T08:20:36.879Z,20.35
2023-03-10T08:23:05.277Z,21.20
2023-03-10T08:25:32.405Z,18.60
2023-03-10T08:27:59.502Z,19.15
2023-03-10T08:30:26.877Z,20.05
2023-03-10T08:32:54.183Z,20.50
2023-03-10T08:35:21.428Z,19.35
2023-03-10T08:37:48.547Z,19.88
2023-03-10T08:40:16.458Z,18.23
2023-03-10T08:42:45.065Z,20.23
2023-03-10T08:45:13.380Z,21.05
2023-03-10T08:47:40.550Z,18.98
2023-03-10T08:50:08.002Z,22.70
2023-03-10T08:52:35.171Z,23.67
2023-03-10T08:55:05.100Z,21.58
2023-03-10T08:57:32.657Z,21.02
2023-03-10T09:00:00.251Z,23.30
2023-03-10T09:02:29.319Z,20.98
2023-03-10T09:04:56.592Z,22.48
2023-03-10T09:07:23.927Z,19.88
2023-03-10T09:09:51.136Z,19.17
2023-03-10T09:12:18.226Z,21.65
2023-03-10T09:14:45.367Z,22.83
2023-03-10T09:17:12.484Z,21.25
2023-03-10T09:19:39.674Z,22.88
2023-03-10T09:22:06.826Z,22.33
2023-03-10T09:24:33.979Z,24.15
2023-03-10T09:27:01.387Z,21.45
2023-03-10T09:29:42.741Z,26.33
2023-03-10T09:32:10.849Z,22.70
2023-03-10T09:34:38.109Z,23.50
2023-03-10T09:37:07.479Z,25.48
2023-03-10T09:39:35.546Z,22.63
2023-03-10T09:42:08.917Z,26.50
2023-03-10T09:44:38.917Z,22.95
2023-03-10T09:47:08.947Z,23.13
2023-03-10T09:49:41.247Z,27.05
2023-03-10T09:52:28.940Z,27.08
2023-03-10T09:54:59.584Z,23.75
2023-03-10T09:57:27.396Z,22.70
2023-03-10T09:59:57.805Z,23.15
2023-03-10T10:02:28.459Z,22.52
2023-03-10T10:05:02.018Z,20.90
2023-03-10T10:07:40.118Z,23.45
2023-03-10T10:10:16.482Z,28.60
2023-03-10T10:12:45.085Z,23.10
2023-03-10T10:15:16.846Z,26.33
2023-03-10T10:18:02.953Z,22.77
2023-03-10T10:20:58.596Z,23.67
2023-03-10T10:23:29.951Z,25.40
2023-03-10T10:26:00.331Z,25.08
2023-03-10T10:28:33.696Z,24.20
2023-03-10T10:31:30.660Z,20.25
2023-03-10T10:34:20.005Z,25.75
2023-03-10T10:36:57.568Z,21.00
2023-03-10T10:39:33.750Z,28.80
2023-03-10T10:42:19.493Z,24.38
2023-03-10T10:44:46.642Z,24.92
2023-03-10T10:47:30.569Z,24.63
2023-03-10T10:50:18.015Z,21.35
2023-03-10T10:52:50.481Z,27.38
2023-03-10T10:55:27.220Z,23.73
2023-03-10T10:58:01.319Z,24.50
2023-03-10T11:00:34.810Z,22.45
2023-03-10T11:03:02.068Z,24.10
2023-03-10T11:05:36.019Z,23.60
2023-03-10T11:08:19.897Z,21.98
2023-03-10T11:10:49.796Z,25.25
2023-03-10T11:13:20.038Z,27.52
2023-03-10T11:15:53.576Z,23.80
2023-03-10T11:18:26.036Z,25.15
2023-03-10T11:21:12.456Z,30.00
2023-03-10T11:23:50.685Z,23.92
2023-03-10T11:26:22.684Z,28.83
2023-03-10T11:29:08.526Z,24.38
2023-03-10T11:31:49.361Z,26.90
2023-03-10T11:34:16.433Z,24.35
2023-03-10T11:37:02.223Z,27.73
2023-03-10T11:39:38.892Z,28.08
2023-03-10T11:42:09.550Z,24.55
2023-03-10T11:44:43.149Z,26.52
2023-03-10T11:47:23.924Z,24.38
2023-03-10T11:49:55.217Z,28.17
2023-03-10T11:52:23.428Z,31.65
2023-03-10T11:55:05.996Z,24.98
2023-03-10T11:57:36.939Z,28.30
2023-03-10T12:00:07.880Z,27.00
2023-03-10T12:02:43.196Z,25.00
2023-03-10T12:05:29.346Z,25.48
2023-03-10T12:08:01.028Z,26.63
2023-03-10T12:10:29.336Z,28.20
2023-03-10T12:12:58.353Z,26.20
2023-03-10T12:15:30.407Z,27.92
2023-03-10T12:17:57.867Z,24.23
2023-03-10T12:20:32.344Z,26.45
2023-03-10T12:23:22.358Z,24.83
2023-03-10T12:25:49.465Z,23.90
2023-03-10T12:28:16.981Z,25.08
2023-03-10T12:30:48.847Z,24.13
2023-03-10T12:33:33.670Z,23.70
2023-03-10T12:36:14.961Z,24.60
2023-03-10T12:39:14.456Z,26.02
2023-03-10T12:41:47.770Z,24.05
2023-03-10T12:44:23.866Z,22.63
2023-03-10T12:46:59.993Z,22.85
2023-03-10T12:49:33.445Z,19.42
2023-03-10T12:52:19.507Z,26.23
2023-03-10T12:54:52.786Z,23.20
2023-03-10T12:57:23.639Z,27.52
2023-03-10T12:59:59.139Z,21.75
2023-03-10T13:02:29.098Z,21.73
2023-03-10T13:04:59.582Z,22.38
2023-03-10T13:07:28.443Z,22.27
2023-03-10T13:09:56.410Z,21.42
2023-03-10T13:12:47.989Z,22.25
2023-03-10T13:15:23.814Z,24.73
2023-03-10T13:17:55.110Z,23.63
2023-03-10T13:20:22.798Z,23.70
2023-03-10T13:22:57.471Z,22.15
2023-03-10T13:25:25.375Z,23.33
2023-03-10T13:27:53.704Z,22.83
2023-03-10T13:30:22.380Z,22.65
2023-03-10T13:33:01.245Z,24.58
2023-03-10T13:35:37.921Z,21.52
2023-03-10T13:38:08.087Z,24.00
2023-03-10T13:40:35.240Z,21.42
2023-03-10T13:43:02.380Z,23.25
2023-03-10T13:45:34.057Z,23.75
2023-03-10T13:48:04.064Z,23.23
2023-03-10T13:50:31.784Z,21.25
2023-03-10T13:53:00.234Z,20.90
2023-03-10T13:55:28.755Z,20.70
2023-03-10T13:57:56.854Z,21.17
2023-03-10T14:00:25.040Z,19.20
2023-03-10T14:02:53.203Z,22.13
2023-03-10T14:05:41.276Z,20.13
2023-03-10T14:08:18.182Z,19.63
2023-03-10T14:10:45.355Z,20.08
2023-03-10T14:13:31.527Z,18.25
2023-03-10T14:15:58.710Z,18.52
2023-03-10T14:18:27.794Z,19.52
2023-03-10T14:20:54.998Z,18.77
2023-03-10T14:23:22.453Z,16.23
2023-03-10T14:25:50.815Z,17.58
2023-03-10T14:28:20.148Z,19.20
2023-03-10T14:30:47.312Z,17.20
2023-03-10T14:33:16.052Z,16.50
2023-03-10T14:35:43.796Z,14.98
2023-03-10T14:38:11.040Z,19.17
2023-03-10T14:40:43.179Z,19.00
2023-03-10T14:43:15.012Z,19.67
2023-03-10T14:45:44.367Z,17.33
2023-03-10T14:48:23.217Z,19.77
2023-03-10T14:50:50.515Z,16.52
2023-03-10T14:53:19.799Z,19.73
2023-03-10T14:55:47.953Z,20.50
2023-03-10T14:58:17.257Z,19.70
2023-03-10T15:00:44.440Z,21.33
2023-03-10T15:03:12.279Z,18.73
2023-03-10T15:05:48.322Z,17.40
2023-03-10T15:08:17.829Z,17.05
2023-03-10T15:10:50.437Z,21.52
2023-03-10T15:13:18.623Z,20.85
2023-03-10T15:15:46.564Z,22.70
2023-03-10T15:18:14.674Z,20.50
2023-03-10T15:20:41.956Z,23.05
2023-03-10T15:23:09.336Z,23.27
2023-03-10T15:25:36.643Z,22.35
2023-03-10T15:28:04.192Z,22.20
2023-03-10T15:30:32.849Z,24.48
2023-03-10T15:33:00.100Z,21.77
2023-03-10T15:35:29.139Z,25.70
2023-03-10T15:37:56.672Z,23.63
2023-03-10T15:40:25.463Z,20.98
2023-03-10T15:42:53.162Z,22.75
2023-03-10T15:45:20.354Z,24.92
2023-03-10T15:47:48.048Z,23.30
2023-03-10T15:50:16.219Z,21.33
2023-03-10T15:52:47.276Z,23.42
2023-03-10T15:55:15.087Z,20.95
2023-03-10T15:57:42.854Z,23.20
2023-03-10T16:00:11.111Z,22.90
2023-03-10T16:02:38.210Z,30.95
2023-03-10T16:05:06.086Z,24.52
2023-03-10T16:07:33.586Z,20.90
2023-03-10T16:10:00.951Z,18.80
2023-03-10T16:12:28.394Z,19.63
2023-03-10T16:14:55.620Z,22.17
2023-03-10T16:17:23.365Z,21.95
2023-03-10T16:19:50.548Z,23.15
2023-03-10T16:22:18.036Z,22.90
2023-03-10T16:24:45.171Z,27.00
2023-03-10T16:27:12.403Z,23.23
2023-03-10T16:29:43.071Z,27.33
2023-03-10T16:32:11.940Z,22.50
2023-03-10T16:34:39.067Z,22.08
2023-03-10T16:37:08.098Z,22.23
2023-03-10T16:39:36.485Z,21.55
2023-03-10T16:42:03.777Z,25.42
2023-03-10T16:44:30.875Z,26.00
2023-03-10T16:46:58.442Z,24.58
2023-03-10T16:49:40.310Z,30.70
2023-03-10T16:52:11.317Z,27.77
2023-03-10T16:54:41.945Z,28.80
2023-03-10T16:57:09.120Z,26.40
2023-03-10T16:59:36.282Z,25.48
2023-03-10T17:02:04.661Z,25.80
2023-03-10T17:04:33.236Z,27.50
2023-03-10T17:07:00.433Z,25.92
2023-03-10T17:09:27.695Z,26.48
2023-03-10T17:11:55.605Z,26.40
2023-03-10T17:14:22.990Z,32.65
2023-03-10T17:16:50.800Z,30.55
2023-03-10T17:19:19.432Z,32.65
2023-03-10T17:21:48.412Z,32.38
2023-03-10T17:24:16.744Z,26.90
2023-03-10T17:26:44.255Z,24.00
2023-03-10T17:29:11.412Z,28.15
2023-03-10T17:31:38.687Z,32.72
2023-03-10T17:34:07.616Z,34.33
2023-03-10T17:36:35.008Z,30.13
2023-03-10T17:39:02.777Z,28.33
2023-03-10T17:41:30.546Z,26.02
2023-03-10T17:43:57.734Z,19.35
2023-03-10T17:46:26.725Z,18.02
2023-03-10T17:48:54.013Z,19.67
2023-03-10T17:51:22.740Z,18.20
2023-03-10T17:53:50.310Z,21.63
2023-03-10T17:56:17.713Z,19.88
2023-03-10T17:58:45.197Z,19.27
2023-03-10T18:01:12.514Z,19.13
2023-03-10T18:03:39.810Z,17.15
2023-03-10T18:06:12.703Z,16.50
2023-03-10T18:08:39.949Z,17.75
2023-03-10T18:11:07.425Z,16.95
2023-03-10T18:13:35.061Z,14.70
2023-03-10T18:16:02.267Z,15.00
2023-03-10T18:18:29.692Z,13.45
2023-03-10T18:20:56.836Z,15.85
2023-03-10T18:23:24.044Z,17.42
2023-03-10T18:25:51.299Z,15.75
2023-03-10T18:28:20.054Z,16.52
2023-03-10T18:30:49.141Z,15.98
2023-03-10T18:33:16.440Z,15.15
2023-03-10T18:35:44.669Z,19.05
2023-03-10T18:38:12.448Z,19.40
2023-03-10T18:40:39.672Z,18.77
2023-03-10T18:43:06.866Z,18.10
2023-03-10T18:45:34.093Z,17.88
2023-03-10T18:48:01.255Z,16.52
2023-03-10T18:50:28.682Z,19.67
2023-03-10T18:52:55.867Z,18.60
2023-03-10T18:55:23.021Z,16.23
2023-03-10T18:57:50.257Z,17.02
2023-03-10T19:00:18.337Z,17.10
2023-03-10T19:02:45.767Z,16.98
2023-03-10T19:05:13.837Z,19.20
2023-03-10T19:07:41.318Z,16.05
2023-03-10T19:10:08.961Z,15.93
2023-03-10T19:12:36.145Z,20.00
2023-03-10T19:15:07.750Z,15.10
2023-03-10T19:17:35.213Z,13.65
2023-03-10T19:20:02.664Z,16.77
2023-03-10T19:22:30.953Z,16.08
2023-03-10T19:24:58.201Z,17.38
2023-03-10T19:27:25.360Z,14.35
2023-03-10T19:29:53.129Z,11.80
2023-03-10T19:32:20.892Z,11.00
2023-03-10T19:34:48.197Z,11.05
2023-03-10T19:37:15.460Z,11.25
2023-03-10T19:39:42.789Z,9.25
2023-03-10T19:42:10.041Z,7.38
2023-03-10T19:44:40.041Z,9.02
2023-03-10T19:47:07.391Z,5.57
2023-03-10T19:49:34.637Z,13.65
2023-03-10T19:52:02.004Z,10.95
2023-03-10T19:54:29.156Z,9.68
2023-03-10T19:56:56.256Z,8.05
2023-03-10T19:59:23.445Z,7.13
2023-03-10T20:01:51.612Z,9.75
2023-03-10T20:04:19.162Z,6.57
2023-03-10T20:06:46.492Z,7.88
2023-03-10T20:09:13.674Z,7.30
2023-03-10T20:11:41.271Z,9.63
2023-03-10T20:14:08.816Z,8.90
2023-03-10T20:16:36.220Z,9.45
2023-03-10T20:19:03.662Z,10.13
2023-03-10T20:21:30.930Z,9.88
2023-03-10T20:23:58.080Z,11.40
2023-03-10T20:26:25.240Z,9.63
2023-03-10T20:28:52.447Z,14.32
2023-03-10T20:31:21.095Z,9.75
2023-03-10T20:33:48.761Z,8.70
2023-03-10T20:36:16.224Z,9.48
2023-03-10T20:38:44.232Z,7.35
2023-03-10T20:41:12.844Z,8.50
2023-03-10T20:43:40.908Z,7.80
2023-03-10T20:46:08.392Z,6.63
2023-03-10T20:48:35.948Z,6.68
2023-03-10T20:51:03.485Z,8.73
2023-03-10T20:53:37.108Z,7.88
2023-03-10T20:56:08.453Z,6.65
2023-03-10T20:58:35.677Z,4.55
2023-03-10T21:01:02.954Z,5.65
2023-03-10T21:03:30.414Z,5.45
2023-03-10T21:05:57.523Z,4.00
2023-03-10T21:08:24.615Z,5.63
2023-03-10T21:10:52.171Z,5.55
2023-03-10T21:13:19.416Z,6.63
2023-03-10T21:15:46.546Z,3.40
2023-03-10T21:18:13.753Z,3.65
2023-03-10T21:20:41.732Z,6.03
2023-03-10T21:23:08.949Z,4.90
2023-03-10T21:25:36.292Z,5.00
2023-03-10T21:28:03.695Z,4.32
2023-03-10T21:30:31.990Z,4.32
2023-03-10T21:32:59.748Z,6.97
2023-03-10T21:35:28.128Z,4.78
2023-03-10T21:37:57.243Z,6.55
2023-03-10T21:40:24.466Z,5.80
2023-03-10T21:42:52.080Z,8.32
2023-03-10T21:45:20.943Z,4.80
2023-03-10T21:47:49.288Z,4.57
2023-03-10T21:50:17.199Z,4.38
2023-03-10T21:52:44.634Z,5.60
2023-03-10T21:55:20.144Z,5.00
2023-03-10T21:57:47.638Z,7.18
2023-03-10T22:00:15.245Z,4.60
2023-03-10T22:02:45.449Z,3.28
2023-03-10T22:05:14.427Z,6.47
2023-03-10T22:07:42.087Z,4.30
2023-03-10T22:10:09.988Z,11.50
2023-03-10T22:12:37.655Z,8.13
2023-03-10T22:15:05.920Z,7.15
2023-03-10T22:17:33.492Z,5.10
2023-03-10T22:20:01.738Z,7.68
2023-03-10T22:22:29.133Z,6.50
2023-03-10T22:24:56.227Z,7.22
2023-03-10T22:27:23.311Z,8.32
2023-03-10T22:29:50.500Z,6.07
2023-03-10T22:32:17.903Z,11.05
2023-03-10T22:34:46.380Z,5.05
2023-03-10T22:37:13.528Z,4.10
2023-03-10T22:39:41.090Z,7.65
2023-03-10T22:42:08.745Z,3.88
2023-03-10T22:44:36.697Z,3.10
2023-03-10T22:47:03.967Z,6.43
2023-03-10T22:49:31.131Z,4.82
2023-03-10T22:51:58.698Z,4.65
2023-03-10T22:54:26.054Z,4.93
2023-03-10T22:56:53.241Z,4.13
2023-03-10T22:59:20.571Z,4.47
2023-03-10T23:01:47.764Z,3.65
2023-03-10T23:04:17.329Z,4.20
2023-03-10T23:06:44.730Z,8.60
2023-03-10T23:09:12.276Z,4.18
2023-03-10T23:11:39.451Z,2.95
2023-03-10T23:14:06.789Z,3.50
2023-03-10T23:16:36.499Z,3.88
2023-03-10T23:19:05.538Z,2.35
2023-03-10T23:21:33.977Z,3.58
2023-03-10T23:24:01.252Z,4.80
2023-03-10T23:26:30.306Z,2.83
2023-03-10T23:28:57.742Z,2.40
2023-03-10T23:31:25.017Z,2.70
2023-03-10T23:33:52.224Z,8.55
2023-03-10T23:36:19.502Z,3.20
2023-03-10T23:38:46.601Z,4.47
2023-03-10T23:41:14.194Z,4.30
2023-03-10T23:43:41.313Z,2.22
2023-03-10T23:46:09.095Z,3.55
2023-03-10T23:48:36.382Z,4.55
2023-03-10T23:51:03.641Z,3.67
2023-03-10T23:53:31.070Z,5.18
2023-03-10T23:55:59.977Z,1.70
2023-03-10T23:58:28.126Z,2.58
